sensor_id;sensor_type;location;lat;lon;timestamp;temperature;humidity
2024;DHT22;1016;48.770;9.154;2022-12-19T00:01:15;2.90;99.90
2024;DHT22;1016;48.770;9.154;2022-12-19T00:03:43;2.90;99.90
2024;DHT22;1016;48.770;9.154;2022-12-19T00:06:08;2.90;99.90
2024;DHT22;1016;48.770;9.154;2022-12-19T00:08:34;2.90;99.90
2024;DHT22;1016;48.770;9.154;2022-12-19T00:11:01;2.90;99.90
2024;DHT22;1016;48.770;9.154;2022-12-19T00:13:29;2.90;99.90
2024;DHT22;1016;48.770;9.154;2022-12-19T00:16:06;2.90;99.90
2024;DHT22;1016;48.770;9.154;2022-12-19T00:18:32;2.90;99.90
2024;DHT22;1016;48.770;9.154;2022-12-19T00:20:59;2.90;99.90
2024;DHT22;1016;48.770;9.154;2022-12-19T00:23:27;2.90;99.90
2024;DHT22;1016;48.770;9.154;2022-12-19T00:25:52;2.90;99.90
2024;DHT22;1016;48.770;9.154;2022-12-19T00:28:18;2.90;99.90
2024;DHT22;1016;48.770;9.154;2022-12-19T00:30:44;3.00;99.90
2024;DHT22;1016;48.770;9.154;2022-12-19T00:33:09;3.00;99.90
2024;DHT22;1016;48.770;9.154;2022-12-19T00:35:35;3.00;99.90
2024;DHT22;1016;48.770;9.154;2022-12-19T00:38:00;3.10;99.90
2024;DHT22;1016;48.770;9.154;2022-12-19T00:40:27;3.10;99.90
2024;DHT22;1016;48.770;9.154;2022-12-19T00:42:52;3.10;99.90
2024;DHT22;1016;48.770;9.154;2022-12-19T00:45:18;3.10;99.90
2024;DHT22;1016;48.770;9.154;2022-12-19T00:47:43;3.10;99.90
2024;DHT22;1016;48.770;9.154;2022-12-19T00:50:09;3.00;99.90
2024;DHT22;1016;48.770;9.154;2022-12-19T00:52:34;2.90;99.90
2024;DHT22;1016;48.770;9.154;2022-12-19T00:55:00;2.90;99.90
2024;DHT22;1016;48.770;9.154;2022-12-19T00:57:25;2.80;99.90
2024;DHT22;1016;48.770;9.154;2022-12-19T00:59:51;2.80;99.90
2024;DHT22;1016;48.770;9.154;2022-12-19T01:02:16;2.80;99.90
2024;DHT22;1016;48.770;9.154;2022-12-19T01:04:42;2.90;99.90
2024;DHT22;1016;48.770;9.154;2022-12-19T01:07:07;2.90;99.90
2024;DHT22;1016;48.770;9.154;2022-12-19T01:09:35;2.90;99.90
2024;DHT22;1016;48.770;9.154;2022-12-19T01:12:01;2.90;99.90
2024;DHT22;1016;48.770;9.154;2022-12-19T01:14:46;2.90;99.90
2024;DHT22;1016;48.770;9.154;2022-12-19T01:17:12;3.00;99.90
2024;DHT22;1016;48.770;9.154;2022-12-19T01:19:37;3.00;99.90
2024;DHT22;1016;48.770;9.154;2022-12-19T01:22:03;3.00;99.90
2024;DHT22;1016;48.770;9.154;2022-12-19T01:24:29;3.00;99.90
2024;DHT22;1016;48.770;9.154;2022-12-19T01:26:54;3.00;99.90
2024;DHT22;1016;48.770;9.154;2022-12-19T01:29:20;3.00;99.90
2024;DHT22;1016;48.770;9.154;2022-12-19T01:31:45;3.10;99.90
2024;DHT22;1016;48.770;9.154;2022-12-19T01:34:11;3.10;99.90
2024;DHT22;1016;48.770;9.154;2022-12-19T01:36:37;3.10;99.90
2024;DHT22;1016;48.770;9.154;2022-12-19T01:39:03;3.20;99.90
2024;DHT22;1016;48.770;9.154;2022-12-19T01:41:28;3.20;99.90
2024;DHT22;1016;48.770;9.154;2022-12-19T01:43:58;3.20;99.90
2024;DHT22;1016;48.770;9.154;2022-12-19T01:49:05;3.30;99.90
2024;DHT22;1016;48.770;9.154;2022-12-19T01:51:52;3.20;99.90
2024;DHT22;1016;48.770;9.154;2022-12-19T01:54:24;3.20;99.90
2024;DHT22;1016;48.770;9.154;2022-12-19T01:56:53;3.20;99.90
2024;DHT22;1016;48.770;9.154;2022-12-19T01:59:24;3.20;99.90
2024;DHT22;1016;48.770;9.154;2022-12-19T02:01:54;3.30;99.90
2024;DHT22;1016;48.770;9.154;2022-12-19T02:04:25;3.30;99.90
2024;DHT22;1016;48.770;9.154;2022-12-19T02:06:53;3.30;99.90
2024;DHT22;1016;48.770;9.154;2022-12-19T02:09:19;3.30;99.90
2024;DHT22;1016;48.770;9.154;2022-12-19T02:11:48;3.30;99.90
2024;DHT22;1016;48.770;9.154;2022-12-19T02:14:14;3.30;99.90
2024;DHT22;1016;48.770;9.154;2022-12-19T02:17:01;3.30;99.90
2024;DHT22;1016;48.770;9.154;2022-12-19T02:22:12;3.30;99.90
2024;DHT22;1016;48.770;9.154;2022-12-19T02:25:16;3.40;99.90
2024;DHT22;1016;48.770;9.154;2022-12-19T02:33:16;3.40;99.90
2024;DHT22;1016;48.770;9.154;2022-12-19T02:35:55;3.40;99.90
2024;DHT22;1016;48.770;9.154;2022-12-19T02:38:39;3.40;99.90
2024;DHT22;1016;48.770;9.154;2022-12-19T02:41:14;3.40;99.90
2024;DHT22;1016;48.770;9.154;2022-12-19T02:43:46;3.40;99.90
2024;DHT22;1016;48.770;9.154;2022-12-19T02:46:14;3.40;99.90
2024;DHT22;1016;48.770;9.154;2022-12-19T02:48:41;3.40;99.90
2024;DHT22;1016;48.770;9.154;2022-12-19T02:51:07;3.50;99.90
2024;DHT22;1016;48.770;9.154;2022-12-19T02:53:33;3.30;99.90
2024;DHT22;1016;48.770;9.154;2022-12-19T02:56:19;3.30;99.90
2024;DHT22;1016;48.770;9.154;2022-12-19T02:59:05;3.30;99.90
2024;DHT22;1016;48.770;9.154;2022-12-19T03:01:51;3.30;99.90
2024;DHT22;1016;48.770;9.154;2022-12-19T03:07:23;3.40;99.90
2024;DHT22;1016;48.770;9.154;2022-12-19T03:09:58;3.40;99.90
2024;DHT22;1016;48.770;9.154;2022-12-19T03:12:35;3.40;99.90
2024;DHT22;1016;48.770;9.154;2022-12-19T03:15:03;3.40;99.90
2024;DHT22;1016;48.770;9.154;2022-12-19T03:17:34;3.40;99.90
2024;DHT22;1016;48.770;9.154;2022-12-19T03:20:04;3.40;99.90
2024;DHT22;1016;48.770;9.154;2022-12-19T03:22:30;3.50;99.90
2024;DHT22;1016;48.770;9.154;2022-12-19T03:24:56;3.40;99.90
2024;DHT22;1016;48.770;9.154;2022-12-19T03:27:30;3.40;99.90
2024;DHT22;1016;48.770;9.154;2022-12-19T03:30:10;3.50;99.90
2024;DHT22;1016;48.770;9.154;2022-12-19T03:32:37;3.50;99.90
2024;DHT22;1016;48.770;9.154;2022-12-19T03:37:36;3.60;99.90
2024;DHT22;1016;48.770;9.154;2022-12-19T03:40:16;3.60;99.90
2024;DHT22;1016;48.770;9.154;2022-12-19T03:42:44;3.60;99.90
2024;DHT22;1016;48.770;9.154;2022-12-19T03:54:00;3.70;99.90
2024;DHT22;1016;48.770;9.154;2022-12-19T03:56:57;3.70;99.90
2024;DHT22;1016;48.770;9.154;2022-12-19T03:59:56;3.70;99.90
2024;DHT22;1016;48.770;9.154;2022-12-19T04:02:22;3.80;99.90
2024;DHT22;1016;48.770;9.154;2022-12-19T04:04:53;3.70;99.90
2024;DHT22;1016;48.770;9.154;2022-12-19T04:07:20;3.70;99.90
2024;DHT22;1016;48.770;9.154;2022-12-19T04:09:48;3.80;99.90
2024;DHT22;1016;48.770;9.154;2022-12-19T04:12:17;3.80;99.90
2024;DHT22;1016;48.770;9.154;2022-12-19T04:14:44;3.80;99.90
2024;DHT22;1016;48.770;9.154;2022-12-19T04:17:33;3.90;99.90
2024;DHT22;1016;48.770;9.154;2022-12-19T04:20:09;3.90;99.90
2024;DHT22;1016;48.770;9.154;2022-12-19T04:22:40;3.90;99.90
2024;DHT22;1016;48.770;9.154;2022-12-19T04:25:10;3.90;99.90
2024;DHT22;1016;48.770;9.154;2022-12-19T04:27:38;3.80;99.90
2024;DHT22;1016;48.770;9.154;2022-12-19T04:30:05;3.80;99.90
2024;DHT22;1016;48.770;9.154;2022-12-19T04:32:33;3.90;99.90
2024;DHT22;1016;48.770;9.154;2022-12-19T04:34:59;3.90;99.90
2024;DHT22;1016;48.770;9.154;2022-12-19T04:37:25;3.90;99.90
2024;DHT22;1016;48.770;9.154;2022-12-19T04:39:51;3.90;99.90
2024;DHT22;1016;48.770;9.154;2022-12-19T04:42:17;4.00;99.90
2024;DHT22;1016;48.770;9.154;2022-12-19T04:44:42;4.00;99.90
2024;DHT22;1016;48.770;9.154;2022-12-19T04:47:08;3.90;99.90
2024;DHT22;1016;48.770;9.154;2022-12-19T04:49:33;4.00;99.90
2024;DHT22;1016;48.770;9.154;2022-12-19T04:51:59;4.00;99.90
2024;DHT22;1016;48.770;9.154;2022-12-19T04:54:24;4.00;99.90
2024;DHT22;1016;48.770;9.154;2022-12-19T04:56:52;4.00;99.90
2024;DHT22;1016;48.770;9.154;2022-12-19T04:59:17;4.00;99.90
2024;DHT22;1016;48.770;9.154;2022-12-19T05:01:43;3.90;99.90
2024;DHT22;1016;48.770;9.154;2022-12-19T05:04:09;3.90;99.90
2024;DHT22;1016;48.770;9.154;2022-12-19T05:06:34;3.80;99.90
2024;DHT22;1016;48.770;9.154;2022-12-19T05:09:00;3.90;99.90
2024;DHT22;1016;48.770;9.154;2022-12-19T05:11:25;3.90;99.90
2024;DHT22;1016;48.770;9.154;2022-12-19T05:13:51;4.00;99.90
2024;DHT22;1016;48.770;9.154;2022-12-19T05:16:16;4.00;99.90
2024;DHT22;1016;48.770;9.154;2022-12-19T05:18:42;3.90;99.90
2024;DHT22;1016;48.770;9.154;2022-12-19T05:21:08;4.00;99.90
2024;DHT22;1016;48.770;9.154;2022-12-19T05:23:35;3.90;99.90
2024;DHT22;1016;48.770;9.154;2022-12-19T05:26:02;3.90;99.90
2024;DHT22;1016;48.770;9.154;2022-12-19T05:28:28;4.00;99.90
2024;DHT22;1016;48.770;9.154;2022-12-19T05:31:11;4.00;99.90
2024;DHT22;1016;48.770;9.154;2022-12-19T05:33:38;4.10;99.90
2024;DHT22;1016;48.770;9.154;2022-12-19T05:36:04;4.00;99.90
2024;DHT22;1016;48.770;9.154;2022-12-19T05:38:30;4.00;99.90
2024;DHT22;1016;48.770;9.154;2022-12-19T05:40:56;4.10;99.90
2024;DHT22;1016;48.770;9.154;2022-12-19T05:43:21;4.10;99.90
2024;DHT22;1016;48.770;9.154;2022-12-19T05:45:47;4.10;99.90
2024;DHT22;1016;48.770;9.154;2022-12-19T05:48:12;4.10;99.90
2024;DHT22;1016;48.770;9.154;2022-12-19T05:50:38;4.10;99.90
2024;DHT22;1016;48.770;9.154;2022-12-19T05:53:03;4.20;99.90
2024;DHT22;1016;48.770;9.154;2022-12-19T05:55:29;4.30;99.90
2024;DHT22;1016;48.770;9.154;2022-12-19T05:57:54;4.30;99.90
2024;DHT22;1016;48.770;9.154;2022-12-19T06:00:20;4.20;99.90
2024;DHT22;1016;48.770;9.154;2022-12-19T06:02:46;4.10;99.90
2024;DHT22;1016;48.770;9.154;2022-12-19T06:05:12;4.10;99.90
2024;DHT22;1016;48.770;9.154;2022-12-19T06:07:38;4.10;99.90
2024;DHT22;1016;48.770;9.154;2022-12-19T06:10:04;4.20;99.90
2024;DHT22;1016;48.770;9.154;2022-12-19T06:12:30;4.30;99.90
2024;DHT22;1016;48.770;9.154;2022-12-19T06:14:55;4.20;99.90
2024;DHT22;1016;48.770;9.154;2022-12-19T06:17:21;4.20;99.90
2024;DHT22;1016;48.770;9.154;2022-12-19T06:19:46;4.20;99.90
2024;DHT22;1016;48.770;9.154;2022-12-19T06:22:12;4.30;99.90
2024;DHT22;1016;48.770;9.154;2022-12-19T06:24:37;4.20;99.90
2024;DHT22;1016;48.770;9.154;2022-12-19T06:27:03;4.20;99.90
2024;DHT22;1016;48.770;9.154;2022-12-19T06:29:29;4.20;99.90
2024;DHT22;1016;48.770;9.154;2022-12-19T06:31:54;4.20;99.90
2024;DHT22;1016;48.770;9.154;2022-12-19T06:34:20;4.30;99.90
2024;DHT22;1016;48.770;9.154;2022-12-19T06:36:45;4.30;99.90
2024;DHT22;1016;48.770;9.154;2022-12-19T06:39:14;4.30;99.90
2024;DHT22;1016;48.770;9.154;2022-12-19T06:41:41;4.30;99.90
2024;DHT22;1016;48.770;9.154;2022-12-19T06:44:25;4.30;99.90
2024;DHT22;1016;48.770;9.154;2022-12-19T06:46:51;4.40;99.90
2024;DHT22;1016;48.770;9.154;2022-12-19T06:49:17;4.30;99.90
2024;DHT22;1016;48.770;9.154;2022-12-19T06:51:43;4.30;99.90
2024;DHT22;1016;48.770;9.154;2022-12-19T06:54:10;4.40;99.90
2024;DHT22;1016;48.770;9.154;2022-12-19T06:56:36;4.40;99.90
2024;DHT22;1016;48.770;9.154;2022-12-19T06:59:03;4.40;99.90
2024;DHT22;1016;48.770;9.154;2022-12-19T07:04:15;4.40;99.90
2024;DHT22;1016;48.770;9.154;2022-12-19T07:06:42;4.40;99.90
2024;DHT22;1016;48.770;9.154;2022-12-19T07:09:07;4.40;99.90
2024;DHT22;1016;48.770;9.154;2022-12-19T07:11:33;4.40;99.90
2024;DHT22;1016;48.770;9.154;2022-12-19T07:13:58;4.40;99.90
2024;DHT22;1016;48.770;9.154;2022-12-19T07:16:24;4.50;99.90
2024;DHT22;1016;48.770;9.154;2022-12-19T07:18:51;4.50;99.90
2024;DHT22;1016;48.770;9.154;2022-12-19T07:21:16;4.60;99.90
2024;DHT22;1016;48.770;9.154;2022-12-19T07:23:42;4.60;99.90
2024;DHT22;1016;48.770;9.154;2022-12-19T07:26:08;4.60;99.90
2024;DHT22;1016;48.770;9.154;2022-12-19T07:28:34;4.70;99.90
2024;DHT22;1016;48.770;9.154;2022-12-19T07:31:00;4.60;99.90
2024;DHT22;1016;48.770;9.154;2022-12-19T07:33:27;4.70;99.90
2024;DHT22;1016;48.770;9.154;2022-12-19T07:35:53;4.70;99.90
2024;DHT22;1016;48.770;9.154;2022-12-19T07:38:18;4.70;99.90
2024;DHT22;1016;48.770;9.154;2022-12-19T07:40:44;4.80;99.90
2024;DHT22;1016;48.770;9.154;2022-12-19T07:43:09;4.70;99.90
2024;DHT22;1016;48.770;9.154;2022-12-19T07:45:36;4.80;99.90
2024;DHT22;1016;48.770;9.154;2022-12-19T07:48:04;4.80;99.90
2024;DHT22;1016;48.770;9.154;2022-12-19T07:50:30;4.80;99.90
2024;DHT22;1016;48.770;9.154;2022-12-19T07:52:56;4.80;99.90
2024;DHT22;1016;48.770;9.154;2022-12-19T07:55:26;4.80;99.90
2024;DHT22;1016;48.770;9.154;2022-12-19T07:57:51;4.90;99.90
2024;DHT22;1016;48.770;9.154;2022-12-19T08:00:18;4.90;99.90
2024;DHT22;1016;48.770;9.154;2022-12-19T08:02:44;4.90;99.90
2024;DHT22;1016;48.770;9.154;2022-12-19T08:05:12;4.90;99.90
2024;DHT22;1016;48.770;9.154;2022-12-19T08:07:38;4.90;99.90
2024;DHT22;1016;48.770;9.154;2022-12-19T08:10:03;4.90;99.90
2024;DHT22;1016;48.770;9.154;2022-12-19T08:12:32;4.90;99.90
2024;DHT22;1016;48.770;9.154;2022-12-19T08:14:58;4.90;99.90
2024;DHT22;1016;48.770;9.154;2022-12-19T08:17:23;5.00;99.90
2024;DHT22;1016;48.770;9.154;2022-12-19T08:19:49;5.10;99.90
2024;DHT22;1016;48.770;9.154;2022-12-19T08:22:14;5.00;99.90
2024;DHT22;1016;48.770;9.154;2022-12-19T08:24:40;5.00;99.90
2024;DHT22;1016;48.770;9.154;2022-12-19T08:27:05;5.00;99.90
2024;DHT22;1016;48.770;9.154;2022-12-19T08:29:31;5.20;99.90
2024;DHT22;1016;48.770;9.154;2022-12-19T08:31:57;5.00;99.90
2024;DHT22;1016;48.770;9.154;2022-12-19T08:34:22;5.10;99.90
2024;DHT22;1016;48.770;9.154;2022-12-19T08:36:48;5.20;99.90
2024;DHT22;1016;48.770;9.154;2022-12-19T08:39:13;5.30;99.90
2024;DHT22;1016;48.770;9.154;2022-12-19T08:41:39;5.30;99.90
2024;DHT22;1016;48.770;9.154;2022-12-19T08:44:04;5.30;99.90
2024;DHT22;1016;48.770;9.154;2022-12-19T08:46:30;5.40;99.90
2024;DHT22;1016;48.770;9.154;2022-12-19T08:48:55;5.40;99.90
2024;DHT22;1016;48.770;9.154;2022-12-19T08:51:21;5.40;99.90
2024;DHT22;1016;48.770;9.154;2022-12-19T08:53:46;5.50;99.90
2024;DHT22;1016;48.770;9.154;2022-12-19T08:56:17;5.60;99.90
2024;DHT22;1016;48.770;9.154;2022-12-19T08:58:43;5.70;99.90
2024;DHT22;1016;48.770;9.154;2022-12-19T09:01:14;5.80;99.90
2024;DHT22;1016;48.770;9.154;2022-12-19T09:03:41;5.80;99.90
2024;DHT22;1016;48.770;9.154;2022-12-19T09:06:10;5.80;99.90
2024;DHT22;1016;48.770;9.154;2022-12-19T09:08:38;5.90;99.90
2024;DHT22;1016;48.770;9.154;2022-12-19T09:11:08;6.00;99.90
2024;DHT22;1016;48.770;9.154;2022-12-19T09:13:36;5.90;99.90
2024;DHT22;1016;48.770;9.154;2022-12-19T09:16:14;6.00;99.90
2024;DHT22;1016;48.770;9.154;2022-12-19T09:18:40;6.10;99.90
2024;DHT22;1016;48.770;9.154;2022-12-19T09:21:06;6.10;99.90
2024;DHT22;1016;48.770;9.154;2022-12-19T09:23:32;6.20;99.90
2024;DHT22;1016;48.770;9.154;2022-12-19T09:26:09;6.10;99.90
2024;DHT22;1016;48.770;9.154;2022-12-19T09:28:36;6.20;99.90
2024;DHT22;1016;48.770;9.154;2022-12-19T09:31:04;6.10;99.90
2024;DHT22;1016;48.770;9.154;2022-12-19T09:33:32;6.20;99.90
2024;DHT22;1016;48.770;9.154;2022-12-19T09:35:58;6.20;99.90
2024;DHT22;1016;48.770;9.154;2022-12-19T09:38:25;6.10;99.90
2024;DHT22;1016;48.770;9.154;2022-12-19T09:46:16;6.30;99.90
2024;DHT22;1016;48.770;9.154;2022-12-19T09:48:42;6.40;99.90
2024;DHT22;1016;48.770;9.154;2022-12-19T09:51:18;6.40;99.90
2024;DHT22;1016;48.770;9.154;2022-12-19T09:54:12;6.40;99.90
2024;DHT22;1016;48.770;9.154;2022-12-19T09:56:41;6.40;99.90
2024;DHT22;1016;48.770;9.154;2022-12-19T09:59:33;6.50;99.90
2024;DHT22;1016;48.770;9.154;2022-12-19T10:04:42;6.50;99.90
2024;DHT22;1016;48.770;9.154;2022-12-19T10:07:12;6.50;99.90
2024;DHT22;1016;48.770;9.154;2022-12-19T10:09:38;6.60;99.90
2024;DHT22;1016;48.770;9.154;2022-12-19T10:12:30;6.60;99.90
2024;DHT22;1016;48.770;9.154;2022-12-19T10:15:07;6.70;99.90
2024;DHT22;1016;48.770;9.154;2022-12-19T10:20:21;6.70;99.90
2024;DHT22;1016;48.770;9.154;2022-12-19T10:25:48;6.60;99.90
2024;DHT22;1016;48.770;9.154;2022-12-19T10:31:17;6.70;99.90
2024;DHT22;1016;48.770;9.154;2022-12-19T10:33:56;6.70;99.90
2024;DHT22;1016;48.770;9.154;2022-12-19T10:36:23;6.70;99.90
2024;DHT22;1016;48.770;9.154;2022-12-19T10:41:23;6.60;99.90
2024;DHT22;1016;48.770;9.154;2022-12-19T10:44:00;6.60;99.90
2024;DHT22;1016;48.770;9.154;2022-12-19T10:46:47;6.70;99.90
2024;DHT22;1016;48.770;9.154;2022-12-19T10:49:21;6.80;99.90
2024;DHT22;1016;48.770;9.154;2022-12-19T10:52:04;6.80;99.90
2024;DHT22;1016;48.770;9.154;2022-12-19T10:59:57;6.90;99.90
2024;DHT22;1016;48.770;9.154;2022-12-19T11:05:22;6.80;99.90
2024;DHT22;1016;48.770;9.154;2022-12-19T11:10:43;6.90;99.90
2024;DHT22;1016;48.770;9.154;2022-12-19T11:13:21;7.00;99.90
2024;DHT22;1016;48.770;9.154;2022-12-19T11:15:50;7.10;99.90
2024;DHT22;1016;48.770;9.154;2022-12-19T11:18:17;7.20;99.90
2024;DHT22;1016;48.770;9.154;2022-12-19T11:20:54;7.20;99.90
2024;DHT22;1016;48.770;9.154;2022-12-19T11:23:24;7.20;99.90
2024;DHT22;1016;48.770;9.154;2022-12-19T11:25:58;7.30;99.90
2024;DHT22;1016;48.770;9.154;2022-12-19T11:28:30;7.30;99.90
2024;DHT22;1016;48.770;9.154;2022-12-19T11:33:24;7.40;99.90
2024;DHT22;1016;48.770;9.154;2022-12-19T11:35:50;7.40;99.90
2024;DHT22;1016;48.770;9.154;2022-12-19T11:38:35;7.50;99.90
2024;DHT22;1016;48.770;9.154;2022-12-19T11:41:56;7.50;99.90
2024;DHT22;1016;48.770;9.154;2022-12-19T11:49:24;7.70;99.90
2024;DHT22;1016;48.770;9.154;2022-12-19T11:52:21;7.80;99.90
2024;DHT22;1016;48.770;9.154;2022-12-19T11:55:02;7.80;99.90
2024;DHT22;1016;48.770;9.154;2022-12-19T11:57:28;7.80;99.90
2024;DHT22;1016;48.770;9.154;2022-12-19T11:59:54;7.80;99.90
2024;DHT22;1016;48.770;9.154;2022-12-19T12:11:00;7.90;99.90
2024;DHT22;1016;48.770;9.154;2022-12-19T12:17:09;8.10;99.90
2024;DHT22;1016;48.770;9.154;2022-12-19T12:20:15;8.10;99.90
2024;DHT22;1016;48.770;9.154;2022-12-19T12:25:58;8.20;99.90
2024;DHT22;1016;48.770;9.154;2022-12-19T12:31:43;8.30;99.90
2024;DHT22;1016;48.770;9.154;2022-12-19T12:34:38;8.30;99.90
2024;DHT22;1016;48.770;9.154;2022-12-19T12:45:26;8.20;99.90
2024;DHT22;1016;48.770;9.154;2022-12-19T12:47:55;8.40;99.90
2024;DHT22;1016;48.770;9.154;2022-12-19T12:52:53;8.70;99.90
2024;DHT22;1016;48.770;9.154;2022-12-19T12:55:34;8.90;99.90
2024;DHT22;1016;48.770;9.154;2022-12-19T13:03:56;9.20;99.90
2024;DHT22;1016;48.770;9.154;2022-12-19T13:11:49;9.60;99.90
2024;DHT22;1016;48.770;9.154;2022-12-19T13:17:01;9.50;99.90
2024;DHT22;1016;48.770;9.154;2022-12-19T13:27:03;9.80;99.90
2024;DHT22;1016;48.770;9.154;2022-12-19T13:37:43;9.50;99.90
2024;DHT22;1016;48.770;9.154;2022-12-19T13:40:23;9.50;99.90
2024;DHT22;1016;48.770;9.154;2022-12-19T13:48:34;9.70;99.90
2024;DHT22;1016;48.770;9.154;2022-12-19T13:51:06;9.70;99.90
2024;DHT22;1016;48.770;9.154;2022-12-19T13:53:32;9.70;99.90
2024;DHT22;1016;48.770;9.154;2022-12-19T13:56:16;9.60;99.90
2024;DHT22;1016;48.770;9.154;2022-12-19T13:58:55;9.60;99.90
2024;DHT22;1016;48.770;9.154;2022-12-19T14:01:29;9.50;99.90
2024;DHT22;1016;48.770;9.154;2022-12-19T14:04:02;9.40;99.90
2024;DHT22;1016;48.770;9.154;2022-12-19T14:06:39;9.30;99.90
2024;DHT22;1016;48.770;9.154;2022-12-19T14:11:45;9.30;99.90
2024;DHT22;1016;48.770;9.154;2022-12-19T14:14:17;9.20;99.90
2024;DHT22;1016;48.770;9.154;2022-12-19T14:17:12;9.20;99.90
2024;DHT22;1016;48.770;9.154;2022-12-19T14:19:40;9.20;99.90
2024;DHT22;1016;48.770;9.154;2022-12-19T14:22:33;9.20;99.90
2024;DHT22;1016;48.770;9.154;2022-12-19T14:25:00;9.20;99.90
2024;DHT22;1016;48.770;9.154;2022-12-19T14:27:52;9.20;99.90
2024;DHT22;1016;48.770;9.154;2022-12-19T14:30:21;9.10;99.90
2024;DHT22;1016;48.770;9.154;2022-12-19T14:32:51;9.00;99.90
2024;DHT22;1016;48.770;9.154;2022-12-19T14:35:20;9.00;99.90
2024;DHT22;1016;48.770;9.154;2022-12-19T14:37:48;8.90;99.90
2024;DHT22;1016;48.770;9.154;2022-12-19T14:40:24;8.90;99.90
2024;DHT22;1016;48.770;9.154;2022-12-19T14:42:51;8.90;99.90
2024;DHT22;1016;48.770;9.154;2022-12-19T14:45:40;8.90;99.90
2024;DHT22;1016;48.770;9.154;2022-12-19T14:53:32;8.80;99.90
2024;DHT22;1016;48.770;9.154;2022-12-19T14:58:36;8.70;99.90
2024;DHT22;1016;48.770;9.154;2022-12-19T15:01:49;8.70;99.90
2024;DHT22;1016;48.770;9.154;2022-12-19T15:04:04;8.70;99.90
2024;DHT22;1016;48.770;9.154;2022-12-19T15:06:32;8.60;99.90
2024;DHT22;1016;48.770;9.154;2022-12-19T15:09:04;8.70;99.90
2024;DHT22;1016;48.770;9.154;2022-12-19T15:11:43;8.60;99.90
2024;DHT22;1016;48.770;9.154;2022-12-19T15:14:37;8.60;99.90
2024;DHT22;1016;48.770;9.154;2022-12-19T15:17:18;8.50;99.90
2024;DHT22;1016;48.770;9.154;2022-12-19T15:19:43;8.50;99.90
2024;DHT22;1016;48.770;9.154;2022-12-19T15:22:09;8.60;99.90
2024;DHT22;1016;48.770;9.154;2022-12-19T15:24:35;8.50;99.90
2024;DHT22;1016;48.770;9.154;2022-12-19T15:27:00;8.50;99.90
2024;DHT22;1016;48.770;9.154;2022-12-19T15:29:26;8.50;99.90
2024;DHT22;1016;48.770;9.154;2022-12-19T15:31:52;8.40;99.90
2024;DHT22;1016;48.770;9.154;2022-12-19T15:34:24;8.40;99.90
2024;DHT22;1016;48.770;9.154;2022-12-19T15:36:52;8.40;99.90
2024;DHT22;1016;48.770;9.154;2022-12-19T15:39:18;8.40;99.90
2024;DHT22;1016;48.770;9.154;2022-12-19T15:41:46;8.40;99.90
2024;DHT22;1016;48.770;9.154;2022-12-19T15:44:16;8.40;99.90
2024;DHT22;1016;48.770;9.154;2022-12-19T15:46:43;8.40;99.90
2024;DHT22;1016;48.770;9.154;2022-12-19T15:49:15;8.30;99.90
2024;DHT22;1016;48.770;9.154;2022-12-19T15:51:41;8.30;99.90
2024;DHT22;1016;48.770;9.154;2022-12-19T15:54:07;8.30;99.90
2024;DHT22;1016;48.770;9.154;2022-12-19T15:56:36;8.30;99.90
2024;DHT22;1016;48.770;9.154;2022-12-19T15:59:02;8.20;99.90
2024;DHT22;1016;48.770;9.154;2022-12-19T16:01:29;8.10;99.90
2024;DHT22;1016;48.770;9.154;2022-12-19T16:03:58;8.20;99.90
2024;DHT22;1016;48.770;9.154;2022-12-19T16:06:24;8.10;99.90
2024;DHT22;1016;48.770;9.154;2022-12-19T16:08:50;8.10;99.90
2024;DHT22;1016;48.770;9.154;2022-12-19T16:11:19;8.10;99.90
2024;DHT22;1016;48.770;9.154;2022-12-19T16:13:49;8.10;99.90
2024;DHT22;1016;48.770;9.154;2022-12-19T16:16:15;8.10;99.90
2024;DHT22;1016;48.770;9.154;2022-12-19T16:18:41;8.10;99.90
2024;DHT22;1016;48.770;9.154;2022-12-19T16:21:23;8.10;99.90
2024;DHT22;1016;48.770;9.154;2022-12-19T16:23:49;8.10;99.90
2024;DHT22;1016;48.770;9.154;2022-12-19T16:28:47;8.10;99.90
2024;DHT22;1016;48.770;9.154;2022-12-19T16:31:14;8.00;99.90
2024;DHT22;1016;48.770;9.154;2022-12-19T16:33:40;8.00;99.90
2024;DHT22;1016;48.770;9.154;2022-12-19T16:36:07;8.00;99.90
2024;DHT22;1016;48.770;9.154;2022-12-19T16:38:34;8.00;99.90
2024;DHT22;1016;48.770;9.154;2022-12-19T16:41:00;7.90;99.90
2024;DHT22;1016;48.770;9.154;2022-12-19T16:43:36;7.90;99.90
2024;DHT22;1016;48.770;9.154;2022-12-19T16:46:05;7.90;99.90
2024;DHT22;1016;48.770;9.154;2022-12-19T16:48:31;7.90;99.90
2024;DHT22;1016;48.770;9.154;2022-12-19T16:51:00;7.90;99.90
2024;DHT22;1016;48.770;9.154;2022-12-19T16:53:25;7.80;99.90
2024;DHT22;1016;48.770;9.154;2022-12-19T16:55:51;7.80;99.90
2024;DHT22;1016;48.770;9.154;2022-12-19T16:58:20;7.80;99.90
2024;DHT22;1016;48.770;9.154;2022-12-19T17:00:47;7.70;99.90
2024;DHT22;1016;48.770;9.154;2022-12-19T17:03:29;7.70;99.90
2024;DHT22;1016;48.770;9.154;2022-12-19T17:05:55;7.70;99.90
2024;DHT22;1016;48.770;9.154;2022-12-19T17:08:22;7.70;99.90
2024;DHT22;1016;48.770;9.154;2022-12-19T17:10:47;7.70;99.90
2024;DHT22;1016;48.770;9.154;2022-12-19T17:13:14;7.60;99.90
2024;DHT22;1016;48.770;9.154;2022-12-19T17:15:42;7.60;99.90
2024;DHT22;1016;48.770;9.154;2022-12-19T17:18:28;7.60;99.90
2024;DHT22;1016;48.770;9.154;2022-12-19T17:20:56;7.60;99.90
2024;DHT22;1016;48.770;9.154;2022-12-19T17:23:23;7.70;99.90
2024;DHT22;1016;48.770;9.154;2022-12-19T17:25:50;7.60;99.90
2024;DHT22;1016;48.770;9.154;2022-12-19T17:28:16;7.60;99.90
2024;DHT22;1016;48.770;9.154;2022-12-19T17:30:45;7.60;99.90
2024;DHT22;1016;48.770;9.154;2022-12-19T17:33:14;7.60;99.90
2024;DHT22;1016;48.770;9.154;2022-12-19T17:35:40;7.60;99.90
2024;DHT22;1016;48.770;9.154;2022-12-19T17:38:11;7.50;99.90
2024;DHT22;1016;48.770;9.154;2022-12-19T17:40:37;7.50;99.90
2024;DHT22;1016;48.770;9.154;2022-12-19T17:43:03;7.40;99.90
2024;DHT22;1016;48.770;9.154;2022-12-19T17:45:29;7.40;99.90
2024;DHT22;1016;48.770;9.154;2022-12-19T17:47:58;7.30;99.90
2024;DHT22;1016;48.770;9.154;2022-12-19T17:50:34;7.30;99.90
2024;DHT22;1016;48.770;9.154;2022-12-19T17:53:01;7.30;99.90
2024;DHT22;1016;48.770;9.154;2022-12-19T17:55:28;7.30;99.90
2024;DHT22;1016;48.770;9.154;2022-12-19T17:57:56;7.30;99.90
2024;DHT22;1016;48.770;9.154;2022-12-19T18:00:27;7.30;99.90
2024;DHT22;1016;48.770;9.154;2022-12-19T18:02:54;7.30;99.90
2024;DHT22;1016;48.770;9.154;2022-12-19T18:05:34;7.30;99.90
2024;DHT22;1016;48.770;9.154;2022-12-19T18:08:01;7.30;99.90
2024;DHT22;1016;48.770;9.154;2022-12-19T18:10:29;7.30;99.90
2024;DHT22;1016;48.770;9.154;2022-12-19T18:12:54;7.30;99.90
2024;DHT22;1016;48.770;9.154;2022-12-19T18:15:21;7.30;99.90
2024;DHT22;1016;48.770;9.154;2022-12-19T18:17:48;7.30;99.90
2024;DHT22;1016;48.770;9.154;2022-12-19T18:20:28;7.30;99.90
2024;DHT22;1016;48.770;9.154;2022-12-19T18:22:54;7.30;99.90
2024;DHT22;1016;48.770;9.154;2022-12-19T18:25:22;7.30;99.90
2024;DHT22;1016;48.770;9.154;2022-12-19T18:27:49;7.20;99.90
2024;DHT22;1016;48.770;9.154;2022-12-19T18:30:16;7.20;99.90
2024;DHT22;1016;48.770;9.154;2022-12-19T18:32:57;7.20;99.90
2024;DHT22;1016;48.770;9.154;2022-12-19T18:37:54;7.30;99.90
2024;DHT22;1016;48.770;9.154;2022-12-19T18:40:22;7.30;99.90
2024;DHT22;1016;48.770;9.154;2022-12-19T18:42:48;7.30;99.90
2024;DHT22;1016;48.770;9.154;2022-12-19T18:45:18;7.40;99.90
2024;DHT22;1016;48.770;9.154;2022-12-19T18:47:46;7.40;99.90
2024;DHT22;1016;48.770;9.154;2022-12-19T18:50:15;7.50;99.90
2024;DHT22;1016;48.770;9.154;2022-12-19T18:52:41;7.50;99.90
2024;DHT22;1016;48.770;9.154;2022-12-19T18:55:19;7.50;99.90
2024;DHT22;1016;48.770;9.154;2022-12-19T18:57:45;7.50;99.90
2024;DHT22;1016;48.770;9.154;2022-12-19T19:00:19;7.60;99.90